createdAt,value
2023-07-08T00:05:57.278Z,7.90
2023-07-08T00:16:00.438Z,8.00
2023-07-08T00:26:05.330Z,10.20
2023-07-08T00:36:13.776Z,8.00
2023-07-08T00:46:31.477Z,9.20
2023-07-08T00:56:40.238Z,9.10
2023-07-08T01:06:47.887Z,10.30
2023-07-08T01:16:52.038Z,8.40
2023-07-08T01:26:55.545Z,6.60
2023-07-08T01:37:00.016Z,6.90
2023-07-08T01:47:09.275Z,8.00
2023-07-08T01:57:12.306Z,8.60
2023-07-08T02:07:15.365Z,6.90
2023-07-08T02:17:18.327Z,8.10
2023-07-08T02:27:21.249Z,8.70
2023-07-08T02:37:24.317Z,10.10
2023-07-08T02:47:27.482Z,11.50
2023-07-08T02:57:30.842Z,8.40
2023-07-08T03:07:33.961Z,7.80
2023-07-08T03:17:36.930Z,7.60
2023-07-08T03:27:40.138Z,8.00
2023-07-08T03:37:43.332Z,9.50
2023-07-08T03:47:46.413Z,5.10
2023-07-08T03:57:50.266Z,12.30
2023-07-08T04:07:54.068Z,7.10
2023-07-08T04:17:57.730Z,7.00
2023-07-08T04:28:00.703Z,6.00
2023-07-08T04:38:09.724Z,8.50
2023-07-08T04:48:15.746Z,5.10
2023-07-08T04:58:18.899Z,6.80
2023-07-08T05:08:21.861Z,5.10
2023-07-08T05:18:24.873Z,9.50
2023-07-08T05:28:28.131Z,4.00
2023-07-08T05:38:31.376Z,3.20
2023-07-08T05:48:34.420Z,1.80
2023-07-08T05:58:37.397Z,4.20
2023-07-08T06:08:40.453Z,2.90
2023-07-08T06:18:43.359Z,2.70
2023-07-08T06:28:46.376Z,3.40
2023-07-08T06:38:49.350Z,4.30
2023-07-08T06:48:54.151Z,5.70
2023-07-08T06:58:57.264Z,9.00
2023-07-08T07:09:00.323Z,9.60
2023-07-08T07:19:03.309Z,12.40
2023-07-08T07:29:06.748Z,14.40
2023-07-08T07:39:09.906Z,13.70
2023-07-08T07:49:12.838Z,9.20
2023-07-08T07:59:15.964Z,2.10
2023-07-08T08:09:18.963Z,5.80
2023-07-08T08:19:23.041Z,2.20
2023-07-08T08:29:26.050Z,1.50
2023-07-08T08:39:30.535Z,1.50
2023-07-08T08:49:42.744Z,2.60
2023-07-08T08:59:54.270Z,1.90
2023-07-08T09:10:05.376Z,3.20
2023-07-08T09:20:21.657Z,4.80
2023-07-08T09:30:26.846Z,1.10
2023-07-08T09:40:32.922Z,1.40
2023-07-08T09:50:37.479Z,1.50
2023-07-08T10:00:42.516Z,2.20
2023-07-08T10:10:47.787Z,2.40
2023-07-08T10:21:00.397Z,1.60
2023-07-08T10:31:27.848Z,1.50
2023-07-08T10:41:44.489Z,1.80
2023-07-08T10:51:54.745Z,1.70
2023-07-08T11:02:16.310Z,1.50
2023-07-08T11:12:27.990Z,2.60
2023-07-08T11:22:32.955Z,3.10
2023-07-08T11:32:37.245Z,3.80
2023-07-08T11:42:46.037Z,1.30
2023-07-08T11:52:54.268Z,2.70
2023-07-08T12:02:59.365Z,4.80
2023-07-08T12:13:03.322Z,3.20
2023-07-08T12:23:13.416Z,2.90
2023-07-08T12:33:19.394Z,2.40
2023-07-08T12:43:22.543Z,1.60
2023-07-08T12:53:25.433Z,2.90
2023-07-08T13:03:31.008Z,2.60
2023-07-08T13:13:37.411Z,3.20
2023-07-08T13:23:41.250Z,2.30
2023-07-08T13:33:48.878Z,1.70
2023-07-08T13:43:52.273Z,3.00
2023-07-08T13:54:00.612Z,2.40
2023-07-08T14:04:05.141Z,1.70
2023-07-08T14:14:09.697Z,1.90
2023-07-08T14:24:14.813Z,5.90
2023-07-08T14:34:22.793Z,2.60
2023-07-08T14:44:31.375Z,2.50
2023-07-08T14:54:34.732Z,1.90
2023-07-08T15:04:37.681Z,5.50
2023-07-08T15:14:41.265Z,1.90
2023-07-08T15:24:44.440Z,2.10
2023-07-08T15:34:47.648Z,4.10
2023-07-08T15:44:52.636Z,1.90
2023-07-08T15:54:55.581Z,2.30
2023-07-08T16:04:58.981Z,2.20
2023-07-08T16:15:02.203Z,2.00
2023-07-08T16:25:06.913Z,3.20
2023-07-08T16:35:11.452Z,1.80
2023-07-08T16:45:16.905Z,1.80
2023-07-08T16:55:21.952Z,1.60
2023-07-08T17:05:29.123Z,1.70
2023-07-08T17:25:35.696Z,3.00
2023-07-08T17:35:38.599Z,6.60
2023-07-08T17:45:45.925Z,4.20
2023-07-08T17:55:51.918Z,14.90
2023-07-08T18:05:54.846Z,5.90
2023-07-08T18:15:57.761Z,15.20
2023-07-08T18:26:01.126Z,17.80
2023-07-08T18:36:05.961Z,2.40
2023-07-08T18:46:11.629Z,7.50
2023-07-08T18:56:17.074Z,12.20
2023-07-08T19:06:20.577Z,5.00
2023-07-08T19:16:23.920Z,4.40
2023-07-08T19:26:27.830Z,6.80
2023-07-08T19:36:32.751Z,7.70
2023-07-08T19:46:35.672Z,9.50
2023-07-08T19:56:39.051Z,7.50
2023-07-08T20:06:43.490Z,11.30
2023-07-08T20:16:48.360Z,8.40
2023-07-08T20:26:51.674Z,6.90
2023-07-08T20:36:54.833Z,12.00
2023-07-08T20:46:57.922Z,5.70
2023-07-08T20:57:01.106Z,10.30
2023-07-08T21:07:05.341Z,9.20
2023-07-08T21:17:15.780Z,11.90
2023-07-08T21:27:22.902Z,7.00
2023-07-08T21:37:26.062Z,8.10
2023-07-08T21:47:29.409Z,4.40
2023-07-08T21:57:32.494Z,7.80
2023-07-08T22:07:35.643Z,6.60
2023-07-08T22:17:38.687Z,7.90
2023-07-08T22:27:42.127Z,6.50
2023-07-08T22:37:45.061Z,5.00
2023-07-08T22:47:49.009Z,7.20
2023-07-08T22:57:52.393Z,5.30
2023-07-08T23:07:56.320Z,6.20
2023-07-08T23:17:59.326Z,4.10
2023-07-08T23:28:02.721Z,3.40
2023-07-08T23:38:05.735Z,3.90
2023-07-08T23:48:13.352Z,4.10
2023-07-08T23:58:21.137Z,4.90
